sensor_id;sensor_type;location;lat;lon;timestamp;P1;durP1;ratioP1;P2;durP2;ratioP2
50337;SDS011;46221;51.178;5.900;2022-08-01T00:00:00;8.50;;;2.75;;
50337;SDS011;46221;51.178;5.900;2022-08-01T00:02:28;10.63;;;2.85;;
50337;SDS011;46221;51.178;5.900;2022-08-01T00:04:55;11.15;;;3.30;;
50337;SDS011;46221;51.178;5.900;2022-08-01T00:07:21;8.88;;;3.83;;
50337;SDS011;46221;51.178;5.900;2022-08-01T00:09:48;11.43;;;2.65;;
50337;SDS011;46221;51.178;5.900;2022-08-01T00:12:18;9.52;;;2.72;;
50337;SDS011;46221;51.178;5.900;2022-08-01T00:14:44;6.85;;;2.70;;
50337;SDS011;46221;51.178;5.900;2022-08-01T00:17:11;11.52;;;3.03;;
50337;SDS011;46221;51.178;5.900;2022-08-01T00:19:38;8.13;;;2.50;;
50337;SDS011;46221;51.178;5.900;2022-08-01T00:22:08;10.38;;;3.40;;
50337;SDS011;46221;51.178;5.900;2022-08-01T00:24:35;8.85;;;2.97;;
50337;SDS011;46221;51.178;5.900;2022-08-01T00:27:01;10.05;;;2.40;;
50337;SDS011;46221;51.178;5.900;2022-08-01T00:29:28;8.38;;;2.40;;
50337;SDS011;46221;51.178;5.900;2022-08-01T00:32:15;10.77;;;2.42;;
50337;SDS011;46221;51.178;5.900;2022-08-01T00:34:42;7.18;;;2.40;;
50337;SDS011;46221;51.178;5.900;2022-08-01T00:37:08;6.60;;;2.38;;
50337;SDS011;46221;51.178;5.900;2022-08-01T00:39:40;6.00;;;2.40;;
50337;SDS011;46221;51.178;5.900;2022-08-01T00:42:09;8.88;;;2.72;;
50337;SDS011;46221;51.178;5.900;2022-08-01T00:44:36;6.75;;;2.50;;
50337;SDS011;46221;51.178;5.900;2022-08-01T00:47:03;12.75;;;2.50;;
50337;SDS011;46221;51.178;5.900;2022-08-01T00:49:31;6.32;;;2.97;;
50337;SDS011;46221;51.178;5.900;2022-08-01T00:51:57;7.00;;;2.38;;
50337;SDS011;46221;51.178;5.900;2022-08-01T00:54:25;5.97;;;2.45;;
50337;SDS011;46221;51.178;5.900;2022-08-01T00:56:53;6.57;;;2.35;;
50337;SDS011;46221;51.178;5.900;2022-08-01T00:59:21;5.65;;;1.95;;
50337;SDS011;46221;51.178;5.900;2022-08-01T01:01:48;7.15;;;1.98;;
50337;SDS011;46221;51.178;5.900;2022-08-01T01:04:16;5.45;;;2.10;;
50337;SDS011;46221;51.178;5.900;2022-08-01T01:17:06;4.28;;;1.95;;
50337;SDS011;46221;51.178;5.900;2022-08-01T01:19:35;4.93;;;1.92;;
50337;SDS011;46221;51.178;5.900;2022-08-01T01:24:37;5.93;;;2.28;;
50337;SDS011;46221;51.178;5.900;2022-08-01T01:27:10;4.90;;;2.25;;
50337;SDS011;46221;51.178;5.900;2022-08-01T01:29:54;5.47;;;2.30;;
50337;SDS011;46221;51.178;5.900;2022-08-01T01:32:31;6.82;;;2.20;;
50337;SDS011;46221;51.178;5.900;2022-08-01T01:35:12;5.88;;;2.00;;
50337;SDS011;46221;51.178;5.900;2022-08-01T01:37:40;4.82;;;2.10;;
50337;SDS011;46221;51.178;5.900;2022-08-01T01:40:07;3.33;;;1.60;;
50337;SDS011;46221;51.178;5.900;2022-08-01T01:42:36;5.30;;;1.88;;
50337;SDS011;46221;51.178;5.900;2022-08-01T01:45:03;4.80;;;2.10;;
50337;SDS011;46221;51.178;5.900;2022-08-01T01:47:30;4.07;;;1.73;;
50337;SDS011;46221;51.178;5.900;2022-08-01T01:49:58;4.90;;;1.80;;
50337;SDS011;46221;51.178;5.900;2022-08-01T01:52:26;6.88;;;2.75;;
50337;SDS011;46221;51.178;5.900;2022-08-01T01:54:53;5.28;;;1.90;;
50337;SDS011;46221;51.178;5.900;2022-08-01T01:57:20;5.22;;;1.90;;
50337;SDS011;46221;51.178;5.900;2022-08-01T01:59:47;4.97;;;1.70;;
50337;SDS011;46221;51.178;5.900;2022-08-01T02:02:14;4.45;;;1.90;;
50337;SDS011;46221;51.178;5.900;2022-08-01T02:04:43;3.85;;;1.80;;
50337;SDS011;46221;51.178;5.900;2022-08-01T02:07:11;5.13;;;2.03;;
50337;SDS011;46221;51.178;5.900;2022-08-01T02:09:39;5.35;;;2.08;;
50337;SDS011;46221;51.178;5.900;2022-08-01T02:12:07;3.47;;;1.73;;
50337;SDS011;46221;51.178;5.900;2022-08-01T02:14:37;3.58;;;1.90;;
50337;SDS011;46221;51.178;5.900;2022-08-01T02:17:06;4.05;;;1.88;;
50337;SDS011;46221;51.178;5.900;2022-08-01T02:19:33;4.32;;;1.92;;
50337;SDS011;46221;51.178;5.900;2022-08-01T02:24:38;3.88;;;1.50;;
50337;SDS011;46221;51.178;5.900;2022-08-01T02:27:07;5.10;;;1.95;;
50337;SDS011;46221;51.178;5.900;2022-08-01T02:29:37;2.97;;;1.70;;
50337;SDS011;46221;51.178;5.900;2022-08-01T02:32:04;4.70;;;1.80;;
50337;SDS011;46221;51.178;5.900;2022-08-01T02:34:31;3.65;;;1.70;;
50337;SDS011;46221;51.178;5.900;2022-08-01T02:36:59;6.05;;;2.20;;
50337;SDS011;46221;51.178;5.900;2022-08-01T02:39:27;3.67;;;1.80;;
50337;SDS011;46221;51.178;5.900;2022-08-01T02:41:57;3.53;;;1.60;;
50337;SDS011;46221;51.178;5.900;2022-08-01T02:44:26;4.03;;;2.03;;
50337;SDS011;46221;51.178;5.900;2022-08-01T02:46:59;4.15;;;2.20;;
50337;SDS011;46221;51.178;5.900;2022-08-01T02:49:33;3.70;;;1.60;;
50337;SDS011;46221;51.178;5.900;2022-08-01T02:52:03;3.58;;;2.00;;
50337;SDS011;46221;51.178;5.900;2022-08-01T02:54:31;4.32;;;2.05;;
50337;SDS011;46221;51.178;5.900;2022-08-01T02:56:59;3.25;;;1.90;;
50337;SDS011;46221;51.178;5.900;2022-08-01T02:59:27;5.97;;;2.33;;
50337;SDS011;46221;51.178;5.900;2022-08-01T03:01:55;4.07;;;2.00;;
50337;SDS011;46221;51.178;5.900;2022-08-01T03:04:22;4.43;;;1.90;;
50337;SDS011;46221;51.178;5.900;2022-08-01T03:06:50;3.22;;;1.83;;
50337;SDS011;46221;51.178;5.900;2022-08-01T03:09:18;3.92;;;1.80;;
50337;SDS011;46221;51.178;5.900;2022-08-01T03:11:45;5.53;;;2.13;;
50337;SDS011;46221;51.178;5.900;2022-08-01T03:14:12;3.70;;;1.70;;
50337;SDS011;46221;51.178;5.900;2022-08-01T03:16:41;3.30;;;1.80;;
50337;SDS011;46221;51.178;5.900;2022-08-01T03:19:08;5.20;;;1.95;;
50337;SDS011;46221;51.178;5.900;2022-08-01T03:21:36;3.47;;;1.90;;
50337;SDS011;46221;51.178;5.900;2022-08-01T03:24:04;3.70;;;1.77;;
50337;SDS011;46221;51.178;5.900;2022-08-01T03:26:32;3.58;;;1.92;;
50337;SDS011;46221;51.178;5.900;2022-08-01T03:29:01;3.83;;;2.40;;
50337;SDS011;46221;51.178;5.900;2022-08-01T03:31:28;6.10;;;2.30;;
50337;SDS011;46221;51.178;5.900;2022-08-01T03:33:56;4.03;;;2.00;;
50337;SDS011;46221;51.178;5.900;2022-08-01T03:36:26;4.82;;;2.17;;
50337;SDS011;46221;51.178;5.900;2022-08-01T03:38:56;3.70;;;1.98;;
50337;SDS011;46221;51.178;5.900;2022-08-01T03:41:23;4.85;;;2.50;;
50337;SDS011;46221;51.178;5.900;2022-08-01T03:43:56;4.07;;;2.70;;
50337;SDS011;46221;51.178;5.900;2022-08-01T03:46:29;3.20;;;1.92;;
50337;SDS011;46221;51.178;5.900;2022-08-01T03:48:58;3.75;;;2.30;;
50337;SDS011;46221;51.178;5.900;2022-08-01T03:51:27;3.60;;;1.90;;
50337;SDS011;46221;51.178;5.900;2022-08-01T03:53:55;3.70;;;2.35;;
50337;SDS011;46221;51.178;5.900;2022-08-01T03:56:22;3.17;;;1.90;;
50337;SDS011;46221;51.178;5.900;2022-08-01T03:58:49;3.45;;;2.10;;
50337;SDS011;46221;51.178;5.900;2022-08-01T04:01:16;3.03;;;1.90;;
50337;SDS011;46221;51.178;5.900;2022-08-01T04:03:43;5.40;;;3.10;;
50337;SDS011;46221;51.178;5.900;2022-08-01T04:06:10;4.82;;;2.30;;
50337;SDS011;46221;51.178;5.900;2022-08-01T04:08:37;4.70;;;2.25;;
50337;SDS011;46221;51.178;5.900;2022-08-01T04:11:04;4.05;;;2.35;;
50337;SDS011;46221;51.178;5.900;2022-08-01T04:13:31;4.53;;;2.10;;
50337;SDS011;46221;51.178;5.900;2022-08-01T04:16:03;3.55;;;2.40;;
50337;SDS011;46221;51.178;5.900;2022-08-01T04:18:29;3.65;;;2.15;;
50337;SDS011;46221;51.178;5.900;2022-08-01T04:20:56;3.33;;;2.13;;
50337;SDS011;46221;51.178;5.900;2022-08-01T04:23:24;5.70;;;2.35;;
50337;SDS011;46221;51.178;5.900;2022-08-01T04:25:52;4.72;;;2.47;;
50337;SDS011;46221;51.178;5.900;2022-08-01T04:28:18;5.72;;;2.83;;
50337;SDS011;46221;51.178;5.900;2022-08-01T04:30:46;4.03;;;2.33;;
50337;SDS011;46221;51.178;5.900;2022-08-01T04:33:13;6.10;;;2.83;;
50337;SDS011;46221;51.178;5.900;2022-08-01T04:35:43;3.78;;;2.35;;
50337;SDS011;46221;51.178;5.900;2022-08-01T04:38:30;6.07;;;2.50;;
50337;SDS011;46221;51.178;5.900;2022-08-01T04:40:58;4.55;;;2.78;;
50337;SDS011;46221;51.178;5.900;2022-08-01T04:43:35;6.38;;;3.30;;
50337;SDS011;46221;51.178;5.900;2022-08-01T04:46:02;6.22;;;2.60;;
50337;SDS011;46221;51.178;5.900;2022-08-01T04:48:32;5.22;;;2.85;;
50337;SDS011;46221;51.178;5.900;2022-08-01T04:51:00;8.75;;;3.38;;
50337;SDS011;46221;51.178;5.900;2022-08-01T04:53:26;19.85;;;3.58;;
50337;SDS011;46221;51.178;5.900;2022-08-01T04:55:53;10.48;;;4.75;;
50337;SDS011;46221;51.178;5.900;2022-08-01T04:58:20;12.90;;;3.78;;
50337;SDS011;46221;51.178;5.900;2022-08-01T05:00:47;19.20;;;4.00;;
50337;SDS011;46221;51.178;5.900;2022-08-01T05:03:13;16.55;;;4.53;;
50337;SDS011;46221;51.178;5.900;2022-08-01T05:05:43;16.10;;;3.85;;
50337;SDS011;46221;51.178;5.900;2022-08-01T05:08:18;26.85;;;4.97;;
50337;SDS011;46221;51.178;5.900;2022-08-01T05:10:45;13.73;;;5.25;;
50337;SDS011;46221;51.178;5.900;2022-08-01T05:13:11;28.05;;;7.38;;
50337;SDS011;46221;51.178;5.900;2022-08-01T05:15:37;30.75;;;6.55;;
50337;SDS011;46221;51.178;5.900;2022-08-01T05:18:04;32.25;;;6.50;;
50337;SDS011;46221;51.178;5.900;2022-08-01T05:20:33;28.92;;;6.45;;
50337;SDS011;46221;51.178;5.900;2022-08-01T05:23:00;42.05;;;7.50;;
50337;SDS011;46221;51.178;5.900;2022-08-01T05:25:26;91.20;;;11.75;;
50337;SDS011;46221;51.178;5.900;2022-08-01T05:28:12;221.15;;;22.55;;
50337;SDS011;46221;51.178;5.900;2022-08-01T05:30:44;371.85;;;35.45;;
50337;SDS011;46221;51.178;5.900;2022-08-01T05:33:10;206.23;;;22.45;;
50337;SDS011;46221;51.178;5.900;2022-08-01T05:35:37;258.40;;;25.17;;
50337;SDS011;46221;51.178;5.900;2022-08-01T05:38:14;204.82;;;21.65;;
50337;SDS011;46221;51.178;5.900;2022-08-01T05:40:41;182.18;;;22.80;;
50337;SDS011;46221;51.178;5.900;2022-08-01T05:43:07;211.02;;;22.23;;
50337;SDS011;46221;51.178;5.900;2022-08-01T05:45:33;175.35;;;22.40;;
50337;SDS011;46221;51.178;5.900;2022-08-01T05:48:00;131.40;;;16.80;;
50337;SDS011;46221;51.178;5.900;2022-08-01T05:50:26;190.77;;;23.92;;
50337;SDS011;46221;51.178;5.900;2022-08-01T05:52:53;211.65;;;24.48;;
50337;SDS011;46221;51.178;5.900;2022-08-01T05:55:19;217.70;;;23.75;;
50337;SDS011;46221;51.178;5.900;2022-08-01T05:57:45;148.32;;;19.17;;
50337;SDS011;46221;51.178;5.900;2022-08-01T06:00:12;151.90;;;18.13;;
50337;SDS011;46221;51.178;5.900;2022-08-01T06:02:41;156.65;;;21.55;;
50337;SDS011;46221;51.178;5.900;2022-08-01T06:05:09;126.50;;;17.48;;
50337;SDS011;46221;51.178;5.900;2022-08-01T06:07:38;144.13;;;17.70;;
50337;SDS011;46221;51.178;5.900;2022-08-01T06:10:06;142.23;;;19.98;;
50337;SDS011;46221;51.178;5.900;2022-08-01T06:12:33;119.82;;;17.17;;
50337;SDS011;46221;51.178;5.900;2022-08-01T06:15:01;138.32;;;16.42;;
50337;SDS011;46221;51.178;5.900;2022-08-01T06:17:27;99.72;;;15.63;;
50337;SDS011;46221;51.178;5.900;2022-08-01T06:40:58;49.65;;;11.88;;
50337;SDS011;46221;51.178;5.900;2022-08-01T06:43:25;58.15;;;13.55;;
50337;SDS011;46221;51.178;5.900;2022-08-01T06:45:51;47.40;;;11.80;;
50337;SDS011;46221;51.178;5.900;2022-08-01T06:48:18;62.75;;;11.68;;
50337;SDS011;46221;51.178;5.900;2022-08-01T06:50:44;70.85;;;13.30;;
50337;SDS011;46221;51.178;5.900;2022-08-01T06:53:11;62.10;;;11.05;;
50337;SDS011;46221;51.178;5.900;2022-08-01T06:55:37;53.97;;;13.00;;
50337;SDS011;46221;51.178;5.900;2022-08-01T06:58:04;66.93;;;11.43;;
50337;SDS011;46221;51.178;5.900;2022-08-01T07:00:31;51.38;;;11.05;;
50337;SDS011;46221;51.178;5.900;2022-08-01T07:02:58;68.88;;;12.00;;
50337;SDS011;46221;51.178;5.900;2022-08-01T07:05:30;52.00;;;12.02;;
50337;SDS011;46221;51.178;5.900;2022-08-01T07:07:57;51.42;;;13.32;;
50337;SDS011;46221;51.178;5.900;2022-08-01T07:21:27;41.50;;;12.52;;
50337;SDS011;46221;51.178;5.900;2022-08-01T07:24:07;49.40;;;10.98;;
50337;SDS011;46221;51.178;5.900;2022-08-01T07:26:40;52.20;;;11.50;;
50337;SDS011;46221;51.178;5.900;2022-08-01T07:29:19;91.57;;;17.67;;
50337;SDS011;46221;51.178;5.900;2022-08-01T07:31:45;116.10;;;18.48;;
50337;SDS011;46221;51.178;5.900;2022-08-01T07:34:12;60.08;;;14.02;;
50337;SDS011;46221;51.178;5.900;2022-08-01T07:36:38;61.88;;;13.30;;
50337;SDS011;46221;51.178;5.900;2022-08-01T07:39:05;61.35;;;12.93;;
50337;SDS011;46221;51.178;5.900;2022-08-01T07:41:31;47.63;;;12.05;;
50337;SDS011;46221;51.178;5.900;2022-08-01T07:44:17;71.47;;;13.32;;
50337;SDS011;46221;51.178;5.900;2022-08-01T07:46:44;42.75;;;10.35;;
50337;SDS011;46221;51.178;5.900;2022-08-01T07:49:11;43.03;;;12.40;;
50337;SDS011;46221;51.178;5.900;2022-08-01T07:51:37;51.90;;;13.63;;
50337;SDS011;46221;51.178;5.900;2022-08-01T07:54:04;45.33;;;11.75;;
50337;SDS011;46221;51.178;5.900;2022-08-01T07:56:30;44.45;;;11.50;;
50337;SDS011;46221;51.178;5.900;2022-08-01T07:58:57;48.75;;;12.70;;
50337;SDS011;46221;51.178;5.900;2022-08-01T08:01:23;57.90;;;12.85;;
50337;SDS011;46221;51.178;5.900;2022-08-01T08:03:50;87.25;;;15.27;;
50337;SDS011;46221;51.178;5.900;2022-08-01T08:06:16;68.82;;;12.75;;
50337;SDS011;46221;51.178;5.900;2022-08-01T08:08:43;78.40;;;12.15;;
50337;SDS011;46221;51.178;5.900;2022-08-01T08:11:09;70.25;;;12.88;;
50337;SDS011;46221;51.178;5.900;2022-08-01T08:13:36;44.63;;;10.45;;
50337;SDS011;46221;51.178;5.900;2022-08-01T08:16:02;38.60;;;9.82;;
50337;SDS011;46221;51.178;5.900;2022-08-01T08:18:32;32.78;;;10.73;;
50337;SDS011;46221;51.178;5.900;2022-08-01T08:20:58;25.25;;;11.07;;
50337;SDS011;46221;51.178;5.900;2022-08-01T08:23:32;26.65;;;10.00;;
50337;SDS011;46221;51.178;5.900;2022-08-01T08:26:17;28.42;;;10.32;;
50337;SDS011;46221;51.178;5.900;2022-08-01T08:28:44;30.60;;;10.02;;
50337;SDS011;46221;51.178;5.900;2022-08-01T08:31:10;31.23;;;10.25;;
50337;SDS011;46221;51.178;5.900;2022-08-01T08:33:56;33.53;;;7.85;;
50337;SDS011;46221;51.178;5.900;2022-08-01T08:36:23;31.08;;;8.43;;
50337;SDS011;46221;51.178;5.900;2022-08-01T08:38:56;50.33;;;11.48;;
50337;SDS011;46221;51.178;5.900;2022-08-01T08:41:23;28.95;;;8.20;;
50337;SDS011;46221;51.178;5.900;2022-08-01T08:43:49;23.92;;;8.95;;
50337;SDS011;46221;51.178;5.900;2022-08-01T08:46:16;27.95;;;8.95;;
50337;SDS011;46221;51.178;5.900;2022-08-01T08:48:53;36.20;;;9.38;;
50337;SDS011;46221;51.178;5.900;2022-08-01T08:51:20;53.45;;;10.50;;
50337;SDS011;46221;51.178;5.900;2022-08-01T08:53:48;47.72;;;10.63;;
50337;SDS011;46221;51.178;5.900;2022-08-01T08:56:14;18.67;;;8.25;;
50337;SDS011;46221;51.178;5.900;2022-08-01T08:58:41;24.48;;;8.15;;
50337;SDS011;46221;51.178;5.900;2022-08-01T09:01:08;29.65;;;7.10;;
50337;SDS011;46221;51.178;5.900;2022-08-01T09:03:39;38.75;;;8.00;;
50337;SDS011;46221;51.178;5.900;2022-08-01T09:06:05;36.13;;;8.32;;
50337;SDS011;46221;51.178;5.900;2022-08-01T09:08:32;39.20;;;7.93;;
50337;SDS011;46221;51.178;5.900;2022-08-01T09:10:59;64.40;;;10.88;;
50337;SDS011;46221;51.178;5.900;2022-08-01T09:13:25;53.80;;;10.15;;
50337;SDS011;46221;51.178;5.900;2022-08-01T09:15:53;41.38;;;8.85;;
50337;SDS011;46221;51.178;5.900;2022-08-01T09:21:10;26.48;;;6.88;;
50337;SDS011;46221;51.178;5.900;2022-08-01T09:23:44;44.22;;;9.25;;
50337;SDS011;46221;51.178;5.900;2022-08-01T09:26:29;34.85;;;7.82;;
50337;SDS011;46221;51.178;5.900;2022-08-01T09:28:57;44.05;;;8.35;;
50337;SDS011;46221;51.178;5.900;2022-08-01T09:31:23;36.58;;;7.70;;
50337;SDS011;46221;51.178;5.900;2022-08-01T09:34:03;40.53;;;9.68;;
50337;SDS011;46221;51.178;5.900;2022-08-01T09:36:43;225.82;;;86.28;;
50337;SDS011;46221;51.178;5.900;2022-08-01T09:39:13;148.52;;;53.90;;
50337;SDS011;46221;51.178;5.900;2022-08-01T09:41:40;135.60;;;47.53;;
50337;SDS011;46221;51.178;5.900;2022-08-01T09:44:07;184.57;;;68.03;;
50337;SDS011;46221;51.178;5.900;2022-08-01T09:46:33;135.55;;;53.30;;
50337;SDS011;46221;51.178;5.900;2022-08-01T09:49:01;104.22;;;40.38;;
50337;SDS011;46221;51.178;5.900;2022-08-01T09:51:33;117.78;;;46.03;;
50337;SDS011;46221;51.178;5.900;2022-08-01T09:54:31;120.50;;;45.17;;
50337;SDS011;46221;51.178;5.900;2022-08-01T09:57:14;134.18;;;50.55;;
50337;SDS011;46221;51.178;5.900;2022-08-01T09:59:45;152.02;;;59.55;;
50337;SDS011;46221;51.178;5.900;2022-08-01T10:02:32;152.32;;;54.92;;
50337;SDS011;46221;51.178;5.900;2022-08-01T10:05:00;193.35;;;60.53;;
50337;SDS011;46221;51.178;5.900;2022-08-01T10:07:33;365.27;;;81.40;;
50337;SDS011;46221;51.178;5.900;2022-08-01T10:10:13;318.48;;;73.90;;
50337;SDS011;46221;51.178;5.900;2022-08-01T10:12:40;369.98;;;90.97;;
50337;SDS011;46221;51.178;5.900;2022-08-01T10:15:10;345.48;;;77.28;;
50337;SDS011;46221;51.178;5.900;2022-08-01T10:17:39;419.05;;;92.53;;
50337;SDS011;46221;51.178;5.900;2022-08-01T10:20:18;443.55;;;101.65;;
50337;SDS011;46221;51.178;5.900;2022-08-01T10:22:58;367.83;;;73.43;;
50337;SDS011;46221;51.178;5.900;2022-08-01T10:25:27;613.40;;;137.45;;
50337;SDS011;46221;51.178;5.900;2022-08-01T10:28:15;475.23;;;113.63;;
50337;SDS011;46221;51.178;5.900;2022-08-01T10:30:46;458.00;;;103.75;;
50337;SDS011;46221;51.178;5.900;2022-08-01T10:33:14;471.30;;;111.55;;
50337;SDS011;46221;51.178;5.900;2022-08-01T10:36:01;516.00;;;121.05;;
50337;SDS011;46221;51.178;5.900;2022-08-01T10:38:28;746.10;;;153.23;;
50337;SDS011;46221;51.178;5.900;2022-08-01T10:40:55;610.30;;;106.22;;
50337;SDS011;46221;51.178;5.900;2022-08-01T10:43:21;899.20;;;163.82;;
50337;SDS011;46221;51.178;5.900;2022-08-01T10:45:48;635.15;;;117.38;;
50337;SDS011;46221;51.178;5.900;2022-08-01T10:48:20;775.35;;;169.55;;
50337;SDS011;46221;51.178;5.900;2022-08-01T10:50:51;736.78;;;153.48;;
50337;SDS011;46221;51.178;5.900;2022-08-01T10:53:19;776.80;;;184.13;;
50337;SDS011;46221;51.178;5.900;2022-08-01T10:58:36;810.47;;;197.25;;
50337;SDS011;46221;51.178;5.900;2022-08-01T11:01:20;821.25;;;215.30;;
50337;SDS011;46221;51.178;5.900;2022-08-01T11:04:21;851.75;;;225.85;;
50337;SDS011;46221;51.178;5.900;2022-08-01T11:12:03;834.83;;;257.85;;
50337;SDS011;46221;51.178;5.900;2022-08-01T11:14:32;931.20;;;272.00;;
50337;SDS011;46221;51.178;5.900;2022-08-01T11:17:34;1015.97;;;309.33;;
50337;SDS011;46221;51.178;5.900;2022-08-01T11:20:08;853.23;;;249.23;;
50337;SDS011;46221;51.178;5.900;2022-08-01T11:25:22;1002.65;;;295.88;;
50337;SDS011;46221;51.178;5.900;2022-08-01T11:28:18;1111.13;;;322.30;;
50337;SDS011;46221;51.178;5.900;2022-08-01T11:38:46;847.83;;;260.90;;
50337;SDS011;46221;51.178;5.900;2022-08-01T11:41:16;771.63;;;247.77;;
50337;SDS011;46221;51.178;5.900;2022-08-01T11:44:09;843.58;;;263.85;;
50337;SDS011;46221;51.178;5.900;2022-08-01T11:46:56;844.47;;;273.97;;
50337;SDS011;46221;51.178;5.900;2022-08-01T11:54:30;867.00;;;285.10;;
50337;SDS011;46221;51.178;5.900;2022-08-01T11:57:05;929.42;;;297.20;;
50337;SDS011;46221;51.178;5.900;2022-08-01T11:59:43;706.10;;;224.45;;
50337;SDS011;46221;51.178;5.900;2022-08-01T12:02:32;790.13;;;256.33;;
50337;SDS011;46221;51.178;5.900;2022-08-01T12:07:30;764.10;;;257.92;;
50337;SDS011;46221;51.178;5.900;2022-08-01T12:10:03;740.15;;;247.07;;
50337;SDS011;46221;51.178;5.900;2022-08-01T12:12:30;513.85;;;164.43;;
50337;SDS011;46221;51.178;5.900;2022-08-01T12:14:58;747.88;;;255.13;;
50337;SDS011;46221;51.178;5.900;2022-08-01T12:17:29;763.30;;;246.85;;
50337;SDS011;46221;51.178;5.900;2022-08-01T12:19:55;788.35;;;252.57;;
50337;SDS011;46221;51.178;5.900;2022-08-01T12:22:24;760.83;;;250.05;;
50337;SDS011;46221;51.178;5.900;2022-08-01T12:24:51;696.13;;;212.35;;
50337;SDS011;46221;51.178;5.900;2022-08-01T12:27:25;740.28;;;237.82;;
50337;SDS011;46221;51.178;5.900;2022-08-01T12:29:51;714.17;;;230.57;;
50337;SDS011;46221;51.178;5.900;2022-08-01T12:32:25;688.22;;;211.25;;
50337;SDS011;46221;51.178;5.900;2022-08-01T12:35:05;751.58;;;218.60;;
50337;SDS011;46221;51.178;5.900;2022-08-01T12:37:34;874.60;;;208.15;;
50337;SDS011;46221;51.178;5.900;2022-08-01T12:40:00;770.80;;;181.48;;
50337;SDS011;46221;51.178;5.900;2022-08-01T12:42:28;937.58;;;231.63;;
50337;SDS011;46221;51.178;5.900;2022-08-01T12:44:54;1068.22;;;248.88;;
50337;SDS011;46221;51.178;5.900;2022-08-01T12:47:21;918.17;;;215.57;;
50337;SDS011;46221;51.178;5.900;2022-08-01T12:49:50;923.17;;;220.68;;
50337;SDS011;46221;51.178;5.900;2022-08-01T12:52:17;825.63;;;178.98;;
50337;SDS011;46221;51.178;5.900;2022-08-01T12:55:02;783.65;;;178.57;;
50337;SDS011;46221;51.178;5.900;2022-08-01T12:57:31;755.58;;;166.20;;
50337;SDS011;46221;51.178;5.900;2022-08-01T13:00:05;652.20;;;147.25;;
50337;SDS011;46221;51.178;5.900;2022-08-01T13:02:32;455.27;;;100.05;;
50337;SDS011;46221;51.178;5.900;2022-08-01T13:04:59;454.33;;;98.65;;
50337;SDS011;46221;51.178;5.900;2022-08-01T13:07:38;308.13;;;63.75;;
50337;SDS011;46221;51.178;5.900;2022-08-01T13:10:11;267.33;;;61.03;;
50337;SDS011;46221;51.178;5.900;2022-08-01T13:12:38;271.05;;;60.05;;
50337;SDS011;46221;51.178;5.900;2022-08-01T13:15:16;250.05;;;58.97;;
50337;SDS011;46221;51.178;5.900;2022-08-01T13:17:42;268.88;;;60.80;;
50337;SDS011;46221;51.178;5.900;2022-08-01T13:20:14;255.02;;;56.17;;
50337;SDS011;46221;51.178;5.900;2022-08-01T13:22:46;421.55;;;78.55;;
50337;SDS011;46221;51.178;5.900;2022-08-01T13:25:13;1277.15;;;188.95;;
50337;SDS011;46221;51.178;5.900;2022-08-01T13:27:44;969.17;;;143.45;;
50337;SDS011;46221;51.178;5.900;2022-08-01T13:30:19;1370.38;;;174.95;;
50337;SDS011;46221;51.178;5.900;2022-08-01T13:32:58;1244.40;;;159.15;;
50337;SDS011;46221;51.178;5.900;2022-08-01T13:35:25;955.00;;;129.23;;
50337;SDS011;46221;51.178;5.900;2022-08-01T13:37:52;735.85;;;103.45;;
50337;SDS011;46221;51.178;5.900;2022-08-01T13:40:23;662.35;;;94.72;;
50337;SDS011;46221;51.178;5.900;2022-08-01T13:42:50;587.42;;;83.15;;
50337;SDS011;46221;51.178;5.900;2022-08-01T13:45:16;446.67;;;66.65;;
50337;SDS011;46221;51.178;5.900;2022-08-01T13:47:47;370.10;;;53.47;;
50337;SDS011;46221;51.178;5.900;2022-08-01T13:50:33;334.70;;;50.78;;
50337;SDS011;46221;51.178;5.900;2022-08-01T13:53:00;277.20;;;45.13;;
50337;SDS011;46221;51.178;5.900;2022-08-01T13:55:26;245.85;;;37.22;;
50337;SDS011;46221;51.178;5.900;2022-08-01T13:57:59;197.30;;;35.63;;
50337;SDS011;46221;51.178;5.900;2022-08-01T14:00:25;207.07;;;30.17;;
50337;SDS011;46221;51.178;5.900;2022-08-01T14:02:52;151.48;;;27.17;;
50337;SDS011;46221;51.178;5.900;2022-08-01T14:05:18;101.32;;;18.70;;
50337;SDS011;46221;51.178;5.900;2022-08-01T14:07:45;55.53;;;11.38;;
50337;SDS011;46221;51.178;5.900;2022-08-01T14:10:14;47.25;;;10.98;;
50337;SDS011;46221;51.178;5.900;2022-08-01T14:12:45;39.20;;;8.20;;
50337;SDS011;46221;51.178;5.900;2022-08-01T14:15:12;39.40;;;8.45;;
50337;SDS011;46221;51.178;5.900;2022-08-01T14:17:59;49.90;;;8.15;;
50337;SDS011;46221;51.178;5.900;2022-08-01T14:20:26;36.17;;;7.13;;
50337;SDS011;46221;51.178;5.900;2022-08-01T14:22:52;41.00;;;7.63;;
50337;SDS011;46221;51.178;5.900;2022-08-01T14:25:18;63.47;;;9.60;;
50337;SDS011;46221;51.178;5.900;2022-08-01T14:28:05;54.75;;;9.48;;
50337;SDS011;46221;51.178;5.900;2022-08-01T14:30:32;58.97;;;9.40;;
50337;SDS011;46221;51.178;5.900;2022-08-01T14:32:59;59.55;;;8.30;;
50337;SDS011;46221;51.178;5.900;2022-08-01T14:35:25;48.00;;;7.70;;
50337;SDS011;46221;51.178;5.900;2022-08-01T14:37:52;65.78;;;10.13;;
50337;SDS011;46221;51.178;5.900;2022-08-01T14:40:22;59.10;;;8.98;;
50337;SDS011;46221;51.178;5.900;2022-08-01T14:42:49;60.03;;;7.80;;
50337;SDS011;46221;51.178;5.900;2022-08-01T14:45:15;62.00;;;8.60;;
50337;SDS011;46221;51.178;5.900;2022-08-01T14:47:42;61.97;;;9.95;;
50337;SDS011;46221;51.178;5.900;2022-08-01T14:50:09;80.93;;;14.93;;
50337;SDS011;46221;51.178;5.900;2022-08-01T14:52:36;68.25;;;13.88;;
50337;SDS011;46221;51.178;5.900;2022-08-01T14:55:03;74.93;;;12.38;;
50337;SDS011;46221;51.178;5.900;2022-08-01T14:57:30;60.78;;;10.25;;
50337;SDS011;46221;51.178;5.900;2022-08-01T14:59:57;38.67;;;8.30;;
50337;SDS011;46221;51.178;5.900;2022-08-01T15:02:23;46.10;;;7.93;;
50337;SDS011;46221;51.178;5.900;2022-08-01T15:04:52;38.45;;;7.15;;
50337;SDS011;46221;51.178;5.900;2022-08-01T15:07:18;40.10;;;6.65;;
50337;SDS011;46221;51.178;5.900;2022-08-01T15:09:45;39.03;;;6.18;;
50337;SDS011;46221;51.178;5.900;2022-08-01T15:12:11;93.10;;;12.40;;
50337;SDS011;46221;51.178;5.900;2022-08-01T15:14:38;117.65;;;13.70;;
50337;SDS011;46221;51.178;5.900;2022-08-01T15:17:17;189.55;;;23.13;;
50337;SDS011;46221;51.178;5.900;2022-08-01T15:19:46;185.13;;;21.95;;
50337;SDS011;46221;51.178;5.900;2022-08-01T15:22:12;186.63;;;22.98;;
50337;SDS011;46221;51.178;5.900;2022-08-01T15:24:39;144.82;;;19.38;;
50337;SDS011;46221;51.178;5.900;2022-08-01T15:27:06;353.25;;;35.65;;
50337;SDS011;46221;51.178;5.900;2022-08-01T15:29:32;352.92;;;37.30;;
50337;SDS011;46221;51.178;5.900;2022-08-01T15:32:00;367.25;;;36.92;;
50337;SDS011;46221;51.178;5.900;2022-08-01T15:34:26;354.27;;;38.10;;
50337;SDS011;46221;51.178;5.900;2022-08-01T15:36:53;288.90;;;33.03;;
50337;SDS011;46221;51.178;5.900;2022-08-01T15:39:19;251.48;;;59.35;;
50337;SDS011;46221;51.178;5.900;2022-08-01T15:41:45;217.45;;;48.40;;
50337;SDS011;46221;51.178;5.900;2022-08-01T15:44:12;201.38;;;41.35;;
50337;SDS011;46221;51.178;5.900;2022-08-01T15:46:38;150.00;;;32.30;;
50337;SDS011;46221;51.178;5.900;2022-08-01T15:49:04;154.15;;;28.20;;
50337;SDS011;46221;51.178;5.900;2022-08-01T15:51:32;113.30;;;23.30;;
50337;SDS011;46221;51.178;5.900;2022-08-01T15:53:59;89.07;;;17.23;;